sensor_id;sensor_type;location;lat;lon;timestamp;pressure;altitude;pressure_sealevel;temperature;humidity
8318;BME280;4196;48.926;8.964;2023-02-18T00:01:14;99948.97;;;11.87;100.00
8318;BME280;4196;48.926;8.964;2023-02-18T00:04:00;99946.22;;;11.70;100.00
8318;BME280;4196;48.926;8.964;2023-02-18T00:06:47;99883.81;;;11.46;100.00
8318;BME280;4196;48.926;8.964;2023-02-18T00:09:33;99963.66;;;11.85;100.00
8318;BME280;4196;48.926;8.964;2023-02-18T00:12:19;99926.34;;;11.68;100.00
8318;BME280;4196;48.926;8.964;2023-02-18T00:15:06;99867.31;;;11.37;100.00
8318;BME280;4196;48.926;8.964;2023-02-18T00:17:52;99906.34;;;11.56;100.00
8318;BME280;4196;48.926;8.964;2023-02-18T00:20:39;99914.13;;;11.56;100.00
8318;BME280;4196;48.926;8.964;2023-02-18T00:23:25;99899.41;;;11.50;100.00
8318;BME280;4196;48.926;8.964;2023-02-18T00:26:13;99924.56;;;11.60;100.00
8318;BME280;4196;48.926;8.964;2023-02-18T00:29:00;99947.16;;;11.78;100.00
8318;BME280;4196;48.926;8.964;2023-02-18T00:31:47;99890.78;;;11.53;100.00
8318;BME280;4196;48.926;8.964;2023-02-18T00:34:34;99901.22;;;11.65;100.00
8318;BME280;4196;48.926;8.964;2023-02-18T00:37:22;99908.22;;;11.75;100.00
8318;BME280;4196;48.926;8.964;2023-02-18T00:40:09;99904.75;;;11.76;100.00
8318;BME280;4196;48.926;8.964;2023-02-18T00:42:56;99931.69;;;11.88;100.00
8318;BME280;4196;48.926;8.964;2023-02-18T00:45:42;99914.31;;;11.82;100.00
8318;BME280;4196;48.926;8.964;2023-02-18T00:48:28;99941.25;;;11.95;100.00
8318;BME280;4196;48.926;8.964;2023-02-18T00:51:15;99916.09;;;11.84;100.00
8318;BME280;4196;48.926;8.964;2023-02-18T00:54:01;99908.25;;;11.78;100.00
8318;BME280;4196;48.926;8.964;2023-02-18T00:56:48;99883.94;;;11.64;100.00
8318;BME280;4196;48.926;8.964;2023-02-18T00:59:34;99925.53;;;11.79;100.00
8318;BME280;4196;48.926;8.964;2023-02-18T01:02:20;99915.16;;;11.79;100.00
8318;BME280;4196;48.926;8.964;2023-02-18T01:05:07;99935.97;;;11.85;100.00
8318;BME280;4196;48.926;8.964;2023-02-18T01:07:53;99918.72;;;11.86;99.35
8318;BME280;4196;48.926;8.964;2023-02-18T01:10:42;99941.22;;;11.96;99.78
8318;BME280;4196;48.926;8.964;2023-02-18T01:13:30;99926.50;;;11.91;99.81
8318;BME280;4196;48.926;8.964;2023-02-18T01:16:17;99891.78;;;11.72;99.43
8318;BME280;4196;48.926;8.964;2023-02-18T01:19:04;99904.78;;;11.79;99.63
8318;BME280;4196;48.926;8.964;2023-02-18T01:21:51;99893.47;;;11.70;99.35
8318;BME280;4196;48.926;8.964;2023-02-18T01:24:37;99905.56;;;11.71;99.77
8318;BME280;4196;48.926;8.964;2023-02-18T01:27:23;99920.31;;;11.73;99.93
8318;BME280;4196;48.926;8.964;2023-02-18T01:30:13;99853.53;;;11.45;99.15
8318;BME280;4196;48.926;8.964;2023-02-18T01:33:00;99910.81;;;11.75;99.30
8318;BME280;4196;48.926;8.964;2023-02-18T01:35:47;99942.94;;;11.91;99.14
8318;BME280;4196;48.926;8.964;2023-02-18T01:38:34;99898.66;;;11.70;98.77
8318;BME280;4196;48.926;8.964;2023-02-18T01:41:20;99934.31;;;11.94;98.55
8318;BME280;4196;48.926;8.964;2023-02-18T01:44:14;99932.63;;;12.02;97.84
8318;BME280;4196;48.926;8.964;2023-02-18T01:47:03;99934.31;;;11.94;98.17
8318;BME280;4196;48.926;8.964;2023-02-18T01:49:51;99933.47;;;11.98;98.22
8318;BME280;4196;48.926;8.964;2023-02-18T01:52:38;99922.19;;;11.90;98.99
8318;BME280;4196;48.926;8.964;2023-02-18T01:55:26;99905.63;;;11.77;99.64
8318;BME280;4196;48.926;8.964;2023-02-18T01:58:12;99878.72;;;11.61;100.00
8318;BME280;4196;48.926;8.964;2023-02-18T02:00:59;99884.78;;;11.61;100.00
8318;BME280;4196;48.926;8.964;2023-02-18T02:03:46;99923.88;;;11.88;100.00
8318;BME280;4196;48.926;8.964;2023-02-18T02:06:33;99927.28;;;11.80;100.00
8318;BME280;4196;48.926;8.964;2023-02-18T02:09:21;99929.00;;;11.81;100.00
8318;BME280;4196;48.926;8.964;2023-02-18T02:12:40;99930.81;;;11.89;100.00
8318;BME280;4196;48.926;8.964;2023-02-18T02:15:46;99923.88;;;11.84;100.00
8318;BME280;4196;48.926;8.964;2023-02-18T02:18:44;99880.41;;;11.56;100.00
8318;BME280;4196;48.926;8.964;2023-02-18T02:22:02;99887.38;;;11.63;100.00
8318;BME280;4196;48.926;8.964;2023-02-18T02:25:11;99902.09;;;11.66;100.00
8318;BME280;4196;48.926;8.964;2023-02-18T02:37:55;99857.88;;;11.46;100.00
8318;BME280;4196;48.926;8.964;2023-02-18T02:40:56;99905.66;;;11.81;100.00
8318;BME280;4196;48.926;8.964;2023-02-18T02:43:55;99887.41;;;11.66;100.00
8318;BME280;4196;48.926;8.964;2023-02-18T02:46:50;99912.66;;;11.90;99.48
8318;BME280;4196;48.926;8.964;2023-02-18T02:49:47;99912.66;;;11.89;99.78
8318;BME280;4196;48.926;8.964;2023-02-18T02:52:58;99852.75;;;11.53;99.57
8318;BME280;4196;48.926;8.964;2023-02-18T02:55:47;99896.22;;;11.87;99.11
8318;BME280;4196;48.926;8.964;2023-02-18T02:58:37;99883.19;;;11.82;98.27
8318;BME280;4196;48.926;8.964;2023-02-18T03:01:35;99900.59;;;11.94;97.12
8318;BME280;4196;48.926;8.964;2023-02-18T03:04:29;99888.50;;;12.00;96.65
8318;BME280;4196;48.926;8.964;2023-02-18T03:07:41;99865.03;;;11.85;96.33
8318;BME280;4196;48.926;8.964;2023-02-18T03:10:44;99868.47;;;11.82;96.42
8318;BME280;4196;48.926;8.964;2023-02-18T03:17:02;99852.88;;;11.79;96.63
8318;BME280;4196;48.926;8.964;2023-02-18T03:20:02;99875.50;;;11.97;97.02
8318;BME280;4196;48.926;8.964;2023-02-18T03:22:52;99866.84;;;11.98;97.97
8318;BME280;4196;48.926;8.964;2023-02-18T03:25:41;99824.34;;;11.75;98.17
8318;BME280;4196;48.926;8.964;2023-02-18T03:28:29;99850.34;;;11.85;98.36
8318;BME280;4196;48.926;8.964;2023-02-18T03:31:22;99835.56;;;11.75;98.97
8318;BME280;4196;48.926;8.964;2023-02-18T03:34:17;99838.13;;;11.71;100.00
8318;BME280;4196;48.926;8.964;2023-02-18T03:37:07;99880.66;;;11.90;100.00
8318;BME280;4196;48.926;8.964;2023-02-18T03:39:56;99785.19;;;11.32;100.00
8318;BME280;4196;48.926;8.964;2023-02-18T03:42:45;99849.34;;;11.65;100.00
8318;BME280;4196;48.926;8.964;2023-02-18T03:45:31;99828.56;;;11.59;100.00
8318;BME280;4196;48.926;8.964;2023-02-18T03:48:18;99844.16;;;11.65;100.00
8318;BME280;4196;48.926;8.964;2023-02-18T03:51:04;99842.44;;;11.64;100.00
8318;BME280;4196;48.926;8.964;2023-02-18T03:53:51;99859.75;;;11.68;100.00
8318;BME280;4196;48.926;8.964;2023-02-18T03:56:37;99865.84;;;11.75;100.00
8318;BME280;4196;48.926;8.964;2023-02-18T03:59:23;99845.06;;;11.67;100.00
8318;BME280;4196;48.926;8.964;2023-02-18T04:02:10;99843.25;;;11.54;100.00
8318;BME280;4196;48.926;8.964;2023-02-18T04:04:56;99851.06;;;11.60;100.00
8318;BME280;4196;48.926;8.964;2023-02-18T04:07:42;99853.69;;;11.71;100.00
8318;BME280;4196;48.926;8.964;2023-02-18T04:10:29;99850.28;;;11.81;99.96
8318;BME280;4196;48.926;8.964;2023-02-18T04:13:16;99825.16;;;11.69;100.00
8318;BME280;4196;48.926;8.964;2023-02-18T04:16:05;99809.56;;;11.66;98.81
8318;BME280;4196;48.926;8.964;2023-02-18T04:18:52;99793.97;;;11.57;97.60
8318;BME280;4196;48.926;8.964;2023-02-18T04:21:38;99825.25;;;11.84;97.08
8318;BME280;4196;48.926;8.964;2023-02-18T04:24:25;99800.06;;;11.65;97.10
8318;BME280;4196;48.926;8.964;2023-02-18T04:27:11;99836.53;;;11.91;96.75
8318;BME280;4196;48.926;8.964;2023-02-18T04:29:58;99849.53;;;11.96;96.16
8318;BME280;4196;48.926;8.964;2023-02-18T04:32:45;99822.59;;;11.75;96.12
8318;BME280;4196;48.926;8.964;2023-02-18T04:35:31;99823.53;;;11.83;94.73
8318;BME280;4196;48.926;8.964;2023-02-18T04:38:17;99818.28;;;11.80;94.97
8318;BME280;4196;48.926;8.964;2023-02-18T04:41:03;99834.81;;;11.92;94.83
8318;BME280;4196;48.926;8.964;2023-02-18T04:43:50;99792.31;;;11.68;94.95
8318;BME280;4196;48.926;8.964;2023-02-18T04:46:36;99832.19;;;11.89;94.75
8318;BME280;4196;48.926;8.964;2023-02-18T04:49:23;99816.53;;;11.78;95.01
8318;BME280;4196;48.926;8.964;2023-02-18T04:52:09;99837.44;;;11.93;94.19
8318;BME280;4196;48.926;8.964;2023-02-18T04:54:56;99816.56;;;11.79;93.93
8318;BME280;4196;48.926;8.964;2023-02-18T04:57:43;99785.31;;;11.58;93.82
8318;BME280;4196;48.926;8.964;2023-02-18T05:00:29;99818.28;;;11.80;94.25
8318;BME280;4196;48.926;8.964;2023-02-18T05:03:15;99843.50;;;11.98;93.05
8318;BME280;4196;48.926;8.964;2023-02-18T05:06:02;99812.25;;;11.78;93.11
8318;BME280;4196;48.926;8.964;2023-02-18T05:08:48;99831.28;;;11.82;93.28
8318;BME280;4196;48.926;8.964;2023-02-18T05:11:35;99821.72;;;11.76;93.02
8318;BME280;4196;48.926;8.964;2023-02-18T05:14:21;99846.06;;;11.95;92.94
8318;BME280;4196;48.926;8.964;2023-02-18T05:17:08;99845.22;;;11.95;92.78
8318;BME280;4196;48.926;8.964;2023-02-18T05:19:54;99817.47;;;11.84;92.87
8318;BME280;4196;48.926;8.964;2023-02-18T05:22:41;99800.09;;;11.73;92.74
8318;BME280;4196;48.926;8.964;2023-02-18T05:25:28;99814.81;;;11.81;93.76
8318;BME280;4196;48.926;8.964;2023-02-18T05:28:14;99803.59;;;11.79;93.97
8318;BME280;4196;48.926;8.964;2023-02-18T05:31:01;99787.97;;;11.67;93.96
8318;BME280;4196;48.926;8.964;2023-02-18T05:33:48;99794.94;;;11.76;94.01
8318;BME280;4196;48.926;8.964;2023-02-18T05:36:34;99804.41;;;11.69;94.62
8318;BME280;4196;48.926;8.964;2023-02-18T05:39:20;99790.56;;;11.70;94.10
8318;BME280;4196;48.926;8.964;2023-02-18T05:42:07;99760.19;;;11.45;94.17
8318;BME280;4196;48.926;8.964;2023-02-18T05:44:53;99828.75;;;11.90;93.65
8318;BME280;4196;48.926;8.964;2023-02-18T05:47:40;99781.94;;;11.68;93.33
8318;BME280;4196;48.926;8.964;2023-02-18T05:50:26;99795.75;;;11.70;92.95
8318;BME280;4196;48.926;8.964;2023-02-18T05:53:12;99807.97;;;11.83;92.45
8318;BME280;4196;48.926;8.964;2023-02-18T05:56:00;99777.59;;;11.64;92.88
8318;BME280;4196;48.926;8.964;2023-02-18T05:58:46;99818.38;;;11.87;92.24
8318;BME280;4196;48.926;8.964;2023-02-18T06:01:33;99785.38;;;11.69;92.54
8318;BME280;4196;48.926;8.964;2023-02-18T06:04:19;99814.78;;;11.69;93.54
8318;BME280;4196;48.926;8.964;2023-02-18T06:07:05;99828.66;;;11.77;93.97
8318;BME280;4196;48.926;8.964;2023-02-18T06:09:52;99822.69;;;11.88;93.55
8318;BME280;4196;48.926;8.964;2023-02-18T06:12:39;99800.13;;;11.79;93.21
8318;BME280;4196;48.926;8.964;2023-02-18T06:15:25;99782.78;;;11.64;93.97
8318;BME280;4196;48.926;8.964;2023-02-18T06:18:11;99788.88;;;11.75;94.11
8318;BME280;4196;48.926;8.964;2023-02-18T06:20:58;99821.81;;;11.84;93.75
8318;BME280;4196;48.926;8.964;2023-02-18T06:23:44;99799.22;;;11.72;94.16
8318;BME280;4196;48.926;8.964;2023-02-18T06:26:30;99768.06;;;11.66;93.09
8318;BME280;4196;48.926;8.964;2023-02-18T06:29:17;99789.78;;;11.85;92.09
8318;BME280;4196;48.926;8.964;2023-02-18T06:32:03;99787.13;;;11.77;91.84
8318;BME280;4196;48.926;8.964;2023-02-18T06:34:50;99757.75;;;11.78;91.00
8318;BME280;4196;48.926;8.964;2023-02-18T06:37:36;99781.09;;;11.81;91.67
8318;BME280;4196;48.926;8.964;2023-02-18T06:40:22;99801.97;;;11.94;91.54
8318;BME280;4196;48.926;8.964;2023-02-18T06:43:09;99816.66;;;11.95;91.91
8318;BME280;4196;48.926;8.964;2023-02-18T06:45:55;99801.97;;;11.94;91.84
8318;BME280;4196;48.926;8.964;2023-02-18T06:48:42;99828.84;;;12.17;91.65
8318;BME280;4196;48.926;8.964;2023-02-18T06:51:31;99820.19;;;12.12;91.55
8318;BME280;4196;48.926;8.964;2023-02-18T06:54:18;99812.38;;;12.09;91.38
8318;BME280;4196;48.926;8.964;2023-02-18T06:57:04;99795.94;;;12.01;91.82
8318;BME280;4196;48.926;8.964;2023-02-18T06:59:51;99821.94;;;12.19;91.43
8318;BME280;4196;48.926;8.964;2023-02-18T07:02:38;99785.53;;;12.04;91.67
8318;BME280;4196;48.926;8.964;2023-02-18T07:05:24;99778.56;;;11.88;91.82
8318;BME280;4196;48.926;8.964;2023-02-18T07:08:11;99813.28;;;12.17;91.09
8318;BME280;4196;48.926;8.964;2023-02-18T07:10:57;99806.31;;;12.10;91.07
8318;BME280;4196;48.926;8.964;2023-02-18T07:13:43;99806.31;;;12.01;92.21
8318;BME280;4196;48.926;8.964;2023-02-18T07:16:30;99786.41;;;12.03;90.87
8318;BME280;4196;48.926;8.964;2023-02-18T07:19:16;99782.09;;;12.05;90.96
8318;BME280;4196;48.926;8.964;2023-02-18T07:22:03;99793.41;;;12.31;89.57
8318;BME280;4196;48.926;8.964;2023-02-18T07:24:53;99797.75;;;12.36;89.19
8318;BME280;4196;48.926;8.964;2023-02-18T07:27:40;99793.44;;;12.38;89.16
8318;BME280;4196;48.926;8.964;2023-02-18T07:30:26;99796.88;;;12.47;87.97
8318;BME280;4196;48.926;8.964;2023-02-18T07:33:13;99765.72;;;12.41;86.80
8318;BME280;4196;48.926;8.964;2023-02-18T07:36:00;99782.19;;;12.54;87.24
8318;BME280;4196;48.926;8.964;2023-02-18T07:38:47;99787.38;;;12.65;86.05
8318;BME280;4196;48.926;8.964;2023-02-18T07:41:33;99744.06;;;12.44;86.16
8318;BME280;4196;48.926;8.964;2023-02-18T07:44:20;99769.19;;;12.62;86.66
8318;BME280;4196;48.926;8.964;2023-02-18T07:47:07;99776.16;;;12.75;85.75
8318;BME280;4196;48.926;8.964;2023-02-18T07:49:54;99766.59;;;12.72;85.28
8318;BME280;4196;48.926;8.964;2023-02-18T07:52:40;99753.63;;;12.71;84.56
8318;BME280;4196;48.926;8.964;2023-02-18T07:55:26;99780.47;;;12.87;84.07
8318;BME280;4196;48.926;8.964;2023-02-18T07:58:35;99778.72;;;12.81;84.86
8318;BME280;4196;48.926;8.964;2023-02-18T08:01:22;99759.66;;;12.62;85.00
8318;BME280;4196;48.926;8.964;2023-02-18T08:04:08;99756.19;;;12.69;84.91
8318;BME280;4196;48.926;8.964;2023-02-18T08:06:55;99788.28;;;12.85;84.57
8318;BME280;4196;48.926;8.964;2023-02-18T08:09:41;99761.41;;;12.69;84.37
8318;BME280;4196;48.926;8.964;2023-02-18T08:12:28;99730.22;;;12.54;84.01
8318;BME280;4196;48.926;8.964;2023-02-18T08:15:15;99753.63;;;12.78;84.31
8318;BME280;4196;48.926;8.964;2023-02-18T08:18:01;99751.88;;;12.84;82.93
8318;BME280;4196;48.926;8.964;2023-02-18T08:20:49;99748.41;;;12.85;83.02
8318;BME280;4196;48.926;8.964;2023-02-18T08:23:37;99726.75;;;12.79;81.98
8318;BME280;4196;48.926;8.964;2023-02-18T08:26:23;99740.59;;;12.91;82.00
8318;BME280;4196;48.926;8.964;2023-02-18T08:29:10;99721.56;;;12.79;82.02
8318;BME280;4196;48.926;8.964;2023-02-18T08:31:57;99718.09;;;12.84;82.34
8318;BME280;4196;48.926;8.964;2023-02-18T08:34:44;99732.78;;;13.03;81.28
8318;BME280;4196;48.926;8.964;2023-02-18T08:37:31;99740.56;;;13.12;81.03
8318;BME280;4196;48.926;8.964;2023-02-18T08:40:38;99762.22;;;13.20;80.93
8318;BME280;4196;48.926;8.964;2023-02-18T08:43:25;99764.84;;;13.23;81.06
8318;BME280;4196;48.926;8.964;2023-02-18T08:46:13;99760.50;;;13.32;80.93
8318;BME280;4196;48.926;8.964;2023-02-18T08:49:17;99720.63;;;13.10;80.23
8318;BME280;4196;48.926;8.964;2023-02-18T08:52:05;99761.38;;;13.37;80.53
8318;BME280;4196;48.926;8.964;2023-02-18T08:54:52;99722.34;;;13.21;80.24
8318;BME280;4196;48.926;8.964;2023-02-18T08:57:38;99737.09;;;13.32;80.49
8318;BME280;4196;48.926;8.964;2023-02-18T09:00:25;99726.69;;;13.32;81.33
8318;BME280;4196;48.926;8.964;2023-02-18T09:03:13;99719.75;;;13.31;80.67
8318;BME280;4196;48.926;8.964;2023-02-18T09:06:00;99719.75;;;13.37;81.01
8318;BME280;4196;48.926;8.964;2023-02-18T09:08:47;99706.72;;;13.38;80.69
8318;BME280;4196;48.926;8.964;2023-02-18T09:11:33;99721.41;;;13.56;80.09
8318;BME280;4196;48.926;8.964;2023-02-18T09:14:19;99722.28;;;13.55;80.25
8318;BME280;4196;48.926;8.964;2023-02-18T09:17:06;99752.56;;;13.68;80.50
8318;BME280;4196;48.926;8.964;2023-02-18T09:19:53;99711.00;;;13.53;80.69
8318;BME280;4196;48.926;8.964;2023-02-18T09:22:39;99721.41;;;13.59;80.19
8318;BME280;4196;48.926;8.964;2023-02-18T09:25:25;99737.00;;;13.59;79.47
8318;BME280;4196;48.926;8.964;2023-02-18T09:28:12;99748.25;;;13.64;80.12
8318;BME280;4196;48.926;8.964;2023-02-18T09:31:09;99709.28;;;13.46;80.33
8318;BME280;4196;48.926;8.964;2023-02-18T09:34:00;99747.34;;;13.71;79.79
8318;BME280;4196;48.926;8.964;2023-02-18T09:36:47;99715.38;;;13.48;79.35
8318;BME280;4196;48.926;8.964;2023-02-18T09:39:33;99711.91;;;13.41;79.60
8318;BME280;4196;48.926;8.964;2023-02-18T09:42:23;99738.72;;;13.60;80.69
8318;BME280;4196;48.926;8.964;2023-02-18T09:45:13;99736.16;;;13.51;80.47
8318;BME280;4196;48.926;8.964;2023-02-18T09:48:04;99679.03;;;13.23;79.63
8318;BME280;4196;48.926;8.964;2023-02-18T09:50:51;99747.38;;;13.67;79.86
8318;BME280;4196;48.926;8.964;2023-02-18T09:53:41;99715.34;;;13.52;79.47
8318;BME280;4196;48.926;8.964;2023-02-18T09:56:31;99704.94;;;13.51;78.97
8318;BME280;4196;48.926;8.964;2023-02-18T09:59:20;99706.66;;;13.50;78.66
8318;BME280;4196;48.926;8.964;2023-02-18T10:02:13;99742.16;;;13.68;78.68
8318;BME280;4196;48.926;8.964;2023-02-18T10:05:03;99735.25;;;13.58;77.62
8318;BME280;4196;48.926;8.964;2023-02-18T10:07:53;99717.09;;;13.47;78.18
8318;BME280;4196;48.926;8.964;2023-02-18T10:10:44;99746.50;;;13.71;77.92
8318;BME280;4196;48.926;8.964;2023-02-18T10:13:33;99723.13;;;13.60;77.41
8318;BME280;4196;48.926;8.964;2023-02-18T10:16:21;99724.75;;;13.76;77.65
8318;BME280;4196;48.926;8.964;2023-02-18T10:19:30;99740.41;;;13.73;77.86
8318;BME280;4196;48.926;8.964;2023-02-18T10:22:19;99740.41;;;13.73;78.13
8318;BME280;4196;48.926;8.964;2023-02-18T10:25:06;99716.13;;;13.65;77.59
8318;BME280;4196;48.926;8.964;2023-02-18T10:27:54;99727.31;;;13.89;77.38
8318;BME280;4196;48.926;8.964;2023-02-18T10:30:46;99686.69;;;13.60;77.25
8318;BME280;4196;48.926;8.964;2023-02-18T10:33:45;99738.63;;;13.85;78.16
8318;BME280;4196;48.926;8.964;2023-02-18T10:36:54;99749.03;;;13.83;78.46
8318;BME280;4196;48.926;8.964;2023-02-18T10:39:47;99741.28;;;13.74;79.00
8318;BME280;4196;48.926;8.964;2023-02-18T10:45:56;99732.63;;;13.73;78.62
8318;BME280;4196;48.926;8.964;2023-02-18T10:51:47;99652.06;;;13.46;79.11
8318;BME280;4196;48.926;8.964;2023-02-18T10:55:02;99728.19;;;13.88;78.32
8318;BME280;4196;48.926;8.964;2023-02-18T10:57:54;99665.09;;;13.44;77.91
8318;BME280;4196;48.926;8.964;2023-02-18T11:00:43;99728.22;;;13.85;78.11
8318;BME280;4196;48.926;8.964;2023-02-18T11:03:44;99700.50;;;13.77;77.98
8318;BME280;4196;48.926;8.964;2023-02-18T11:12:45;99735.03;;;14.04;77.06
8318;BME280;4196;48.926;8.964;2023-02-18T11:15:33;99699.59;;;13.82;76.13
8318;BME280;4196;48.926;8.964;2023-02-18T11:21:34;99697.06;;;13.65;78.02
8318;BME280;4196;48.926;8.964;2023-02-18T11:24:20;99673.81;;;13.26;79.12
8318;BME280;4196;48.926;8.964;2023-02-18T11:27:09;99687.63;;;13.45;79.90
8318;BME280;4196;48.926;8.964;2023-02-18T11:30:02;99666.88;;;13.33;79.59
8318;BME280;4196;48.926;8.964;2023-02-18T11:32:54;99685.00;;;13.50;79.05
8318;BME280;4196;48.926;8.964;2023-02-18T11:35:48;99685.84;;;13.53;79.18
8318;BME280;4196;48.926;8.964;2023-02-18T11:38:37;99706.63;;;13.58;79.45
8318;BME280;4196;48.926;8.964;2023-02-18T11:41:39;99687.59;;;13.44;79.62
8318;BME280;4196;48.926;8.964;2023-02-18T11:44:32;99697.09;;;13.57;80.26
8318;BME280;4196;48.926;8.964;2023-02-18T11:47:22;99706.59;;;13.69;78.46
8318;BME280;4196;48.926;8.964;2023-02-18T11:52:55;99678.06;;;13.47;79.62
8318;BME280;4196;48.926;8.964;2023-02-18T11:55:53;99656.47;;;13.25;80.12
8318;BME280;4196;48.926;8.964;2023-02-18T11:58:46;99669.44;;;13.41;82.14
8318;BME280;4196;48.926;8.964;2023-02-18T12:04:35;99689.31;;;13.59;81.95
8318;BME280;4196;48.926;8.964;2023-02-18T12:10:41;99673.75;;;13.48;81.72
8318;BME280;4196;48.926;8.964;2023-02-18T12:13:35;99685.06;;;13.38;80.87
8318;BME280;4196;48.926;8.964;2023-02-18T12:16:42;99689.41;;;13.34;80.31
8318;BME280;4196;48.926;8.964;2023-02-18T12:28:50;99623.66;;;12.85;82.43
8318;BME280;4196;48.926;8.964;2023-02-18T12:41:07;99681.63;;;13.23;82.29
8318;BME280;4196;48.926;8.964;2023-02-18T12:57:48;99654.75;;;13.17;83.16
8318;BME280;4196;48.926;8.964;2023-02-18T13:06:45;99621.91;;;12.88;83.83
8318;BME280;4196;48.926;8.964;2023-02-18T13:13:18;99632.28;;;12.94;83.91
8318;BME280;4196;48.926;8.964;2023-02-18T13:16:09;99611.47;;;12.96;83.26
8318;BME280;4196;48.926;8.964;2023-02-18T13:19:18;99643.47;;;13.22;83.00
8318;BME280;4196;48.926;8.964;2023-02-18T13:22:09;99631.34;;;13.26;82.57
8318;BME280;4196;48.926;8.964;2023-02-18T13:24:58;99643.44;;;13.35;82.48
8318;BME280;4196;48.926;8.964;2023-02-18T13:31:16;99626.94;;;13.42;82.45
8318;BME280;4196;48.926;8.964;2023-02-18T13:37:34;99626.13;;;13.34;82.55
8318;BME280;4196;48.926;8.964;2023-02-18T13:40:27;99619.19;;;13.31;83.52
8318;BME280;4196;48.926;8.964;2023-02-18T13:43:28;99618.34;;;13.26;83.20
8318;BME280;4196;48.926;8.964;2023-02-18T13:46:17;99570.75;;;13.07;83.80
8318;BME280;4196;48.926;8.964;2023-02-18T13:49:11;99617.44;;;13.38;84.08
8318;BME280;4196;48.926;8.964;2023-02-18T13:52:00;99587.13;;;13.24;83.62
8318;BME280;4196;48.926;8.964;2023-02-18T13:54:48;99581.94;;;13.24;83.36
8318;BME280;4196;48.926;8.964;2023-02-18T13:57:37;99594.91;;;13.37;83.72
8318;BME280;4196;48.926;8.964;2023-02-18T14:00:34;99585.38;;;13.34;83.46
8318;BME280;4196;48.926;8.964;2023-02-18T14:03:48;99559.38;;;13.20;84.09
8318;BME280;4196;48.926;8.964;2023-02-18T14:06:35;99576.59;;;13.47;84.17
8318;BME280;4196;48.926;8.964;2023-02-18T14:12:40;99591.28;;;13.59;84.12
8318;BME280;4196;48.926;8.964;2023-02-18T14:21:36;99594.56;;;13.89;83.47
8318;BME280;4196;48.926;8.964;2023-02-18T14:24:42;99596.28;;;13.87;83.06
8318;BME280;4196;48.926;8.964;2023-02-18T14:27:32;99579.19;;;13.55;83.28
8318;BME280;4196;48.926;8.964;2023-02-18T14:30:23;99599.84;;;13.75;84.14
8318;BME280;4196;48.926;8.964;2023-02-18T14:33:14;99584.31;;;13.64;83.35
8318;BME280;4196;48.926;8.964;2023-02-18T14:48:59;99567.09;;;13.42;84.18
8318;BME280;4196;48.926;8.964;2023-02-18T14:51:49;99568.84;;;13.40;83.56
8318;BME280;4196;48.926;8.964;2023-02-18T14:54:38;99549.00;;;13.23;83.22
8318;BME280;4196;48.926;8.964;2023-02-18T14:57:38;99558.53;;;13.24;83.90
8318;BME280;4196;48.926;8.964;2023-02-18T15:00:28;99554.16;;;13.34;82.07
8318;BME280;4196;48.926;8.964;2023-02-18T15:03:18;99585.22;;;13.54;81.72
8318;BME280;4196;48.926;8.964;2023-02-18T15:09:13;99594.72;;;13.61;81.31
8318;BME280;4196;48.926;8.964;2023-02-18T15:12:03;99608.66;;;13.51;80.92
8318;BME280;4196;48.926;8.964;2023-02-18T15:14:52;99578.44;;;13.28;80.76
8318;BME280;4196;48.926;8.964;2023-02-18T15:17:44;99582.81;;;13.13;81.33
8318;BME280;4196;48.926;8.964;2023-02-18T15:20:33;99596.66;;;13.22;81.75
8318;BME280;4196;48.926;8.964;2023-02-18T15:23:20;99583.75;;;13.07;81.44
8318;BME280;4196;48.926;8.964;2023-02-18T15:26:06;99584.56;;;13.15;82.41
8318;BME280;4196;48.926;8.964;2023-02-18T15:28:59;99607.09;;;13.13;81.94
8318;BME280;4196;48.926;8.964;2023-02-18T15:31:47;99550.88;;;12.89;81.67
8318;BME280;4196;48.926;8.964;2023-02-18T15:34:38;99595.84;;;13.08;82.25
8318;BME280;4196;48.926;8.964;2023-02-18T15:37:24;99564.72;;;12.88;81.68
8318;BME280;4196;48.926;8.964;2023-02-18T15:40:15;99586.28;;;13.10;81.86
8318;BME280;4196;48.926;8.964;2023-02-18T15:43:03;99591.56;;;12.92;82.33
8318;BME280;4196;48.926;8.964;2023-02-18T15:45:54;99582.88;;;12.96;82.60
8318;BME280;4196;48.926;8.964;2023-02-18T15:48:46;99537.94;;;12.75;82.46
8318;BME280;4196;48.926;8.964;2023-02-18T15:51:33;99518.94;;;12.61;82.78
8318;BME280;4196;48.926;8.964;2023-02-18T15:54:21;99590.72;;;12.87;83.79
8318;BME280;4196;48.926;8.964;2023-02-18T15:57:12;99594.22;;;12.89;83.46
8318;BME280;4196;48.926;8.964;2023-02-18T16:00:13;99592.50;;;12.81;84.33
8318;BME280;4196;48.926;8.964;2023-02-18T16:05:50;99564.84;;;12.54;85.45
8318;BME280;4196;48.926;8.964;2023-02-18T16:09:01;99570.94;;;12.46;85.44
8318;BME280;4196;48.926;8.964;2023-02-18T16:11:53;99589.94;;;12.51;86.12
8318;BME280;4196;48.926;8.964;2023-02-18T16:14:48;99563.16;;;12.33;86.72
8318;BME280;4196;48.926;8.964;2023-02-18T16:17:35;99592.59;;;12.42;87.02
8318;BME280;4196;48.926;8.964;2023-02-18T16:20:33;99595.16;;;12.46;86.98
8318;BME280;4196;48.926;8.964;2023-02-18T16:23:26;99597.75;;;12.43;87.07
8318;BME280;4196;48.926;8.964;2023-02-18T16:29:14;99538.09;;;11.99;88.13
8318;BME280;4196;48.926;8.964;2023-02-18T16:32:02;99588.28;;;12.19;87.98
8318;BME280;4196;48.926;8.964;2023-02-18T16:34:49;99581.34;;;12.03;88.89
8318;BME280;4196;48.926;8.964;2023-02-18T16:37:35;99588.28;;;12.07;89.13
8318;BME280;4196;48.926;8.964;2023-02-18T16:40:30;99590.88;;;12.08;89.50
8318;BME280;4196;48.926;8.964;2023-02-18T16:43:23;99592.59;;;12.06;89.58
8318;BME280;4196;48.926;8.964;2023-02-18T16:46:18;99597.81;;;12.00;89.63
8318;BME280;4196;48.926;8.964;2023-02-18T16:49:11;99596.06;;;12.01;89.38
8318;BME280;4196;48.926;8.964;2023-02-18T16:52:00;99602.13;;;11.97;89.62
8318;BME280;4196;48.926;8.964;2023-02-18T16:54:50;99582.22;;;11.87;89.06
8318;BME280;4196;48.926;8.964;2023-02-18T16:57:38;99594.34;;;11.86;89.57
8318;BME280;4196;48.926;8.964;2023-02-18T17:00:24;99570.94;;;11.72;90.04
8318;BME280;4196;48.926;8.964;2023-02-18T17:03:11;99613.31;;;11.79;90.59
8318;BME280;4196;48.926;8.964;2023-02-18T17:05:58;99586.50;;;11.60;91.05
8318;BME280;4196;48.926;8.964;2023-02-18T17:08:45;99621.09;;;11.77;91.30
8318;BME280;4196;48.926;8.964;2023-02-18T17:11:33;99585.63;;;11.53;91.27
8318;BME280;4196;48.926;8.964;2023-02-18T17:14:21;99584.69;;;11.41;92.10
8318;BME280;4196;48.926;8.964;2023-02-18T17:17:12;99628.88;;;11.64;92.82
8318;BME280;4196;48.926;8.964;2023-02-18T17:20:03;99596.78;;;11.37;92.86